createdAt,value
2023-05-24T00:01:32.661Z,10.59
2023-05-24T00:03:59.348Z,10.18
2023-05-24T00:06:25.941Z,10.43
2023-05-24T00:08:52.503Z,10.37
2023-05-24T00:11:18.951Z,10.21
2023-05-24T00:13:45.381Z,10.27
2023-05-24T00:16:11.978Z,9.57
2023-05-24T00:18:38.505Z,9.73
2023-05-24T00:21:04.947Z,10.08
2023-05-24T00:23:31.448Z,9.82
2023-05-24T00:25:57.876Z,10.14
2023-05-24T00:28:24.302Z,9.95
2023-05-24T00:30:50.749Z,9.54
2023-05-24T00:33:17.213Z,9.75
2023-05-24T00:35:43.652Z,9.29
2023-05-24T00:38:10.167Z,9.42
2023-05-24T00:40:36.680Z,9.25
2023-05-24T00:43:03.130Z,9.62
2023-05-24T00:45:30.794Z,9.02
2023-05-24T00:47:58.377Z,9.00
2023-05-24T00:50:24.914Z,8.94
2023-05-24T00:52:51.357Z,9.26
2023-05-24T00:55:17.793Z,8.79
2023-05-24T00:57:44.355Z,9.03
2023-05-24T01:00:10.850Z,9.16
2023-05-24T01:02:37.367Z,9.12
2023-05-24T01:05:03.890Z,9.05
2023-05-24T01:07:30.322Z,9.16
2023-05-24T01:09:56.747Z,9.20
2023-05-24T01:12:23.194Z,8.58
2023-05-24T01:14:49.786Z,9.51
2023-05-24T01:17:16.240Z,8.96
2023-05-24T01:19:42.674Z,8.75
2023-05-24T01:22:09.130Z,8.75
2023-05-24T01:24:35.557Z,8.35
2023-05-24T01:27:01.997Z,8.08
2023-05-24T01:29:28.431Z,8.30
2023-05-24T01:31:55.021Z,8.30
2023-05-24T01:34:21.553Z,8.53
2023-05-24T01:36:48.011Z,8.49
2023-05-24T01:39:14.478Z,8.25
2023-05-24T01:41:40.914Z,8.43
2023-05-24T01:44:07.447Z,8.06
2023-05-24T01:46:34.055Z,7.99
2023-05-24T01:49:00.578Z,8.40
2023-05-24T01:51:27.040Z,7.99
2023-05-24T01:53:53.492Z,8.20
2023-05-24T01:56:20.073Z,8.39
2023-05-24T01:58:46.516Z,8.14
2023-05-24T02:01:13.028Z,8.52
2023-05-24T02:03:39.483Z,7.92
2023-05-24T02:06:05.982Z,8.06
2023-05-24T02:08:32.525Z,7.74
2023-05-24T02:10:59.103Z,7.93
2023-05-24T02:13:25.582Z,7.65
2023-05-24T02:15:52.030Z,7.88
2023-05-24T02:18:18.468Z,7.88
2023-05-24T02:20:45.109Z,7.98
2023-05-24T02:23:11.720Z,7.48
2023-05-24T02:25:38.135Z,7.46
2023-05-24T02:28:04.589Z,7.79
2023-05-24T02:30:31.074Z,7.56
2023-05-24T02:32:57.611Z,7.96
2023-05-24T02:35:24.085Z,7.42
2023-05-24T02:37:50.549Z,7.47
2023-05-24T02:40:16.972Z,7.68
2023-05-24T02:42:43.428Z,7.97
2023-05-24T02:45:09.902Z,8.22
2023-05-24T02:47:36.394Z,7.68
2023-05-24T02:50:02.841Z,7.91
2023-05-24T02:52:29.277Z,7.82
2023-05-24T02:54:55.694Z,7.67
2023-05-24T02:57:22.204Z,7.86
2023-05-24T02:59:48.673Z,7.90
2023-05-24T03:02:15.145Z,8.03
2023-05-24T03:04:41.592Z,7.47
2023-05-24T03:07:08.069Z,7.43
2023-05-24T03:09:34.531Z,7.81
2023-05-24T03:12:00.992Z,7.68
2023-05-24T03:14:27.434Z,7.64
2023-05-24T03:16:53.859Z,7.39
2023-05-24T03:19:20.326Z,7.85
2023-05-24T03:21:46.773Z,8.06
2023-05-24T03:24:13.289Z,7.45
2023-05-24T03:26:39.884Z,7.80
2023-05-24T03:29:06.329Z,7.76
2023-05-24T03:31:32.858Z,7.86
2023-05-24T03:33:59.306Z,7.77
2023-05-24T03:36:25.850Z,7.81
2023-05-24T03:38:52.274Z,8.10
2023-05-24T03:41:18.790Z,7.96
2023-05-24T03:43:45.221Z,7.72
2023-05-24T03:46:11.702Z,7.97
2023-05-24T03:48:38.172Z,7.68
2023-05-24T03:51:04.588Z,8.14
2023-05-24T03:53:31.002Z,8.16
2023-05-24T03:55:57.495Z,8.62
2023-05-24T03:58:23.939Z,8.83
2023-05-24T04:00:50.400Z,8.14
2023-05-24T04:03:16.880Z,8.23
2023-05-24T04:05:43.344Z,8.12
2023-05-24T04:08:09.824Z,8.42
2023-05-24T04:10:36.310Z,8.14
2023-05-24T04:13:02.892Z,8.46
2023-05-24T04:15:29.451Z,7.82
2023-05-24T04:17:56.077Z,8.13
2023-05-24T04:20:22.762Z,8.02
2023-05-24T04:22:49.198Z,8.82
2023-05-24T04:25:15.768Z,8.08
2023-05-24T04:27:42.228Z,8.19
2023-05-24T04:30:08.674Z,8.22
2023-05-24T04:32:35.128Z,8.42
2023-05-24T04:35:01.572Z,8.54
2023-05-24T04:37:28.049Z,8.11
2023-05-24T04:39:54.537Z,8.39
2023-05-24T04:42:20.966Z,8.72
2023-05-24T04:44:47.387Z,8.02
2023-05-24T04:47:13.852Z,8.38
2023-05-24T04:49:40.323Z,8.64
2023-05-24T04:52:06.808Z,8.43
2023-05-24T04:54:33.306Z,7.99
2023-05-24T04:56:59.765Z,8.23
2023-05-24T04:59:26.235Z,8.54
2023-05-24T05:01:53.032Z,8.59
2023-05-24T05:04:19.493Z,8.92
2023-05-24T05:06:45.999Z,8.97
2023-05-24T05:09:12.451Z,8.76
2023-05-24T05:11:38.874Z,8.71
2023-05-24T05:14:05.425Z,8.56
2023-05-24T05:16:31.944Z,8.81
2023-05-24T05:18:58.483Z,8.80
2023-05-24T05:21:24.968Z,9.24
2023-05-24T05:23:51.466Z,8.43
2023-05-24T05:26:17.919Z,8.66
2023-05-24T05:28:44.413Z,8.90
2023-05-24T05:31:10.856Z,9.15
2023-05-24T05:33:37.406Z,9.49
2023-05-24T05:36:03.929Z,9.53
2023-05-24T05:38:30.423Z,8.96
2023-05-24T05:40:56.885Z,8.69
2023-05-24T05:43:23.395Z,9.14
2023-05-24T05:45:49.935Z,8.79
2023-05-24T05:48:16.430Z,8.99
2023-05-24T05:50:43.105Z,8.74
2023-05-24T05:53:09.933Z,8.64
2023-05-24T05:55:36.403Z,9.16
2023-05-24T05:58:02.850Z,8.81
2023-05-24T06:00:29.691Z,8.58
2023-05-24T06:02:56.332Z,8.58
2023-05-24T06:05:22.862Z,9.28
2023-05-24T06:07:49.333Z,9.13
2023-05-24T06:10:15.853Z,9.06
2023-05-24T06:12:42.353Z,9.50
2023-05-24T06:15:08.804Z,9.10
2023-05-24T06:17:35.283Z,8.99
2023-05-24T06:20:01.918Z,9.06
2023-05-24T06:22:28.397Z,9.23
2023-05-24T06:24:54.856Z,9.87
2023-05-24T06:27:21.460Z,10.02
2023-05-24T06:29:47.969Z,10.34
2023-05-24T06:32:14.517Z,10.17
2023-05-24T06:34:40.997Z,9.98
2023-05-24T06:37:07.421Z,9.35
2023-05-24T06:39:33.869Z,9.44
2023-05-24T06:42:00.301Z,9.20
2023-05-24T06:44:26.901Z,9.69
2023-05-24T06:46:53.423Z,9.45
2023-05-24T06:49:19.953Z,9.67
2023-05-24T06:51:48.907Z,9.60
2023-05-24T06:54:15.500Z,9.55
2023-05-24T06:56:42.146Z,9.39
2023-05-24T06:59:08.671Z,10.08
2023-05-24T07:01:35.274Z,10.27
2023-05-24T07:04:01.835Z,9.32
2023-05-24T07:06:28.502Z,8.95
2023-05-24T07:08:55.027Z,9.56
2023-05-24T07:11:21.565Z,10.02
2023-05-24T07:13:48.208Z,9.95
2023-05-24T07:16:14.733Z,10.27
2023-05-24T07:18:41.215Z,9.86
2023-05-24T07:21:07.667Z,9.51
2023-05-24T07:23:34.134Z,9.90
2023-05-24T07:26:00.652Z,9.78
2023-05-24T07:28:27.110Z,9.73
2023-05-24T07:30:53.733Z,9.91
2023-05-24T07:33:20.291Z,10.00
2023-05-24T07:35:46.898Z,10.10
2023-05-24T07:38:13.499Z,10.28
2023-05-24T07:40:39.996Z,10.32
2023-05-24T07:43:06.582Z,10.35
2023-05-24T07:45:33.065Z,10.04
2023-05-24T07:47:59.529Z,10.44
2023-05-24T07:50:26.077Z,10.21
2023-05-24T07:52:52.666Z,9.95
2023-05-24T07:55:19.096Z,9.71
2023-05-24T07:57:45.607Z,9.69
2023-05-24T08:00:12.155Z,9.70
2023-05-24T08:02:38.804Z,9.56
2023-05-24T08:05:05.439Z,9.39
2023-05-24T08:07:31.914Z,9.87
2023-05-24T08:09:58.596Z,10.16
2023-05-24T08:12:25.208Z,9.92
2023-05-24T08:14:51.691Z,10.40
2023-05-24T08:17:18.158Z,10.30
2023-05-24T08:19:45.070Z,10.47
2023-05-24T08:22:11.479Z,10.17
2023-05-24T08:24:38.056Z,10.21
2023-05-24T08:27:04.526Z,10.29
2023-05-24T08:29:31.059Z,10.18
2023-05-24T08:31:58.312Z,10.49
2023-05-24T08:34:24.804Z,10.86
2023-05-24T08:36:51.384Z,10.85
2023-05-24T08:39:17.860Z,10.79
2023-05-24T08:41:47.533Z,10.26
2023-05-24T08:44:20.895Z,10.42
2023-05-24T08:46:48.730Z,10.45
2023-05-24T08:49:15.230Z,11.10
2023-05-24T08:51:42.077Z,11.35
2023-05-24T08:54:08.522Z,10.46
2023-05-24T08:56:34.997Z,11.05
2023-05-24T08:59:01.559Z,10.62
2023-05-24T09:01:30.781Z,10.45
2023-05-24T09:03:57.994Z,11.38
2023-05-24T09:06:24.560Z,11.13
2023-05-24T09:08:51.072Z,10.92
2023-05-24T09:11:17.545Z,10.60
2023-05-24T09:13:44.030Z,11.76
2023-05-24T09:16:10.542Z,10.82
2023-05-24T09:18:37.085Z,10.94
2023-05-24T09:21:03.645Z,11.81
2023-05-24T09:23:30.148Z,11.07
2023-05-24T09:25:56.625Z,11.45
2023-05-24T09:28:23.148Z,11.37
2023-05-24T09:30:49.600Z,10.98
2023-05-24T09:33:16.285Z,11.07
2023-05-24T09:35:42.756Z,11.03
2023-05-24T09:38:09.337Z,10.68
2023-05-24T09:40:35.869Z,10.39
2023-05-24T09:43:02.334Z,10.43
2023-05-24T09:45:28.796Z,11.02
2023-05-24T09:47:55.336Z,10.69
2023-05-24T09:50:21.818Z,10.63
2023-05-24T09:52:48.412Z,10.58
2023-05-24T09:55:14.931Z,10.12
2023-05-24T09:57:41.407Z,10.71
2023-05-24T10:00:08.046Z,10.74
2023-05-24T10:02:41.621Z,10.05
2023-05-24T10:05:20.931Z,10.41
2023-05-24T10:07:47.420Z,10.65
2023-05-24T10:10:14.289Z,10.35
2023-05-24T10:12:40.807Z,10.83
2023-05-24T10:15:07.274Z,10.31
2023-05-24T10:17:33.812Z,10.22
2023-05-24T10:20:00.390Z,11.22
2023-05-24T10:22:27.039Z,11.02
2023-05-24T10:24:53.576Z,10.74
2023-05-24T10:27:20.211Z,10.38
2023-05-24T10:29:46.733Z,9.86
2023-05-24T10:32:13.195Z,10.84
2023-05-24T10:34:39.635Z,10.61
2023-05-24T10:37:06.351Z,10.89
2023-05-24T10:39:32.918Z,11.14
2023-05-24T10:41:59.553Z,10.96
2023-05-24T10:44:26.105Z,9.87
2023-05-24T10:46:52.641Z,9.19
2023-05-24T10:49:19.132Z,9.12
2023-05-24T10:51:45.658Z,9.36
2023-05-24T10:54:12.172Z,9.32
2023-05-24T10:56:38.728Z,9.10
2023-05-24T10:59:05.152Z,9.44
2023-05-24T11:01:31.601Z,9.30
2023-05-24T11:03:58.018Z,9.27
2023-05-24T11:06:24.528Z,10.09
2023-05-24T11:08:50.952Z,9.97
2023-05-24T11:11:24.602Z,9.51
2023-05-24T11:13:53.345Z,9.43
2023-05-24T11:16:20.027Z,9.91
2023-05-24T11:18:46.463Z,9.86
2023-05-24T11:21:12.928Z,9.79
2023-05-24T11:23:39.432Z,9.26
2023-05-24T11:26:05.899Z,9.06
2023-05-24T11:28:32.349Z,9.66
2023-05-24T11:30:58.859Z,9.39
2023-05-24T11:33:25.314Z,9.33
2023-05-24T11:35:51.767Z,9.94
2023-05-24T11:38:18.284Z,10.21
2023-05-24T11:40:44.823Z,10.77
2023-05-24T11:43:11.357Z,10.27
2023-05-24T11:45:37.938Z,10.60
2023-05-24T11:48:04.450Z,10.50
2023-05-24T11:50:38.901Z,9.46
2023-05-24T11:53:12.429Z,9.10
2023-05-24T11:55:38.919Z,10.37
2023-05-24T11:58:07.983Z,9.82
2023-05-24T12:00:34.547Z,9.96
2023-05-24T12:03:01.309Z,10.18
2023-05-24T12:05:27.878Z,10.31
2023-05-24T12:07:54.347Z,9.44
2023-05-24T12:10:22.909Z,9.74
2023-05-24T12:12:49.656Z,8.65
2023-05-24T12:15:16.475Z,8.02
2023-05-24T12:17:43.305Z,8.65
2023-05-24T12:20:09.920Z,8.74
2023-05-24T12:22:36.380Z,9.22
2023-05-24T12:25:02.867Z,8.34
2023-05-24T12:27:29.378Z,8.73
2023-05-24T12:29:55.958Z,8.52
2023-05-24T12:32:22.436Z,8.18
2023-05-24T12:34:48.987Z,8.44
2023-05-24T12:37:15.464Z,8.59
2023-05-24T12:39:42.138Z,9.07
2023-05-24T12:42:08.674Z,8.69
2023-05-24T12:44:35.282Z,8.92
2023-05-24T12:47:01.825Z,8.62
2023-05-24T12:49:28.338Z,8.78
2023-05-24T12:51:54.862Z,8.47
2023-05-24T12:54:21.315Z,8.24
2023-05-24T12:56:47.956Z,8.44
2023-05-24T12:59:14.655Z,8.77
2023-05-24T13:01:43.311Z,8.63
2023-05-24T13:04:10.044Z,8.40
2023-05-24T13:06:36.567Z,8.29
2023-05-24T13:09:02.986Z,8.72
2023-05-24T13:11:29.419Z,8.91
2023-05-24T13:13:55.878Z,9.11
2023-05-24T13:16:22.319Z,9.36
2023-05-24T13:18:48.882Z,9.07
2023-05-24T13:21:15.367Z,8.30
2023-05-24T13:23:42.036Z,8.46
2023-05-24T13:26:08.592Z,8.10
2023-05-24T13:28:35.158Z,8.42
2023-05-24T13:31:01.627Z,7.84
2023-05-24T13:33:28.101Z,8.05
2023-05-24T13:35:54.630Z,8.17
2023-05-24T13:38:21.107Z,7.84
2023-05-24T13:40:47.831Z,8.21
2023-05-24T13:43:14.474Z,8.21
2023-05-24T13:45:40.921Z,8.24
2023-05-24T13:48:10.681Z,8.90
2023-05-24T13:50:37.414Z,9.37
2023-05-24T13:53:03.925Z,10.08
2023-05-24T13:55:30.473Z,10.27
2023-05-24T13:57:56.957Z,10.90
2023-05-24T14:00:23.437Z,11.26
2023-05-24T14:02:50.027Z,10.57
2023-05-24T14:07:46.056Z,10.44
2023-05-24T14:10:12.554Z,10.46
2023-05-24T14:12:39.024Z,10.25
2023-05-24T14:15:05.501Z,10.84
2023-05-24T14:17:31.985Z,10.66
2023-05-24T14:19:58.551Z,10.25
2023-05-24T14:22:25.006Z,9.87
2023-05-24T14:24:51.542Z,10.22
2023-05-24T14:27:18.000Z,10.13
2023-05-24T14:29:44.576Z,10.08
2023-05-24T14:32:11.242Z,10.17
2023-05-24T14:34:37.887Z,9.74
2023-05-24T14:37:04.423Z,9.69
2023-05-24T14:39:30.950Z,9.10
2023-05-24T14:41:57.448Z,8.58
2023-05-24T14:44:23.885Z,9.22
2023-05-24T14:46:50.677Z,8.85
2023-05-24T14:49:18.221Z,8.74
2023-05-24T14:51:44.770Z,8.59
2023-05-24T14:54:11.183Z,9.20
2023-05-24T14:56:37.637Z,9.02
2023-05-24T14:59:04.080Z,10.05
2023-05-24T15:01:30.618Z,9.42
2023-05-24T15:03:57.241Z,10.06
2023-05-24T15:06:24.824Z,9.37
2023-05-24T15:08:51.287Z,10.03
2023-05-24T15:11:17.752Z,9.92
2023-05-24T15:13:44.207Z,10.11
2023-05-24T15:16:10.744Z,10.35
2023-05-24T15:18:37.264Z,10.23
2023-05-24T15:21:03.907Z,9.93
2023-05-24T15:23:30.373Z,10.01
2023-05-24T15:25:56.810Z,9.89
2023-05-24T15:28:26.057Z,9.40
2023-05-24T15:30:53.025Z,10.07
2023-05-24T15:33:19.666Z,9.53
2023-05-24T15:35:46.271Z,9.20
2023-05-24T15:38:12.863Z,8.86
2023-05-24T15:40:39.338Z,9.59
2023-05-24T15:43:05.773Z,8.57
2023-05-24T15:45:32.295Z,8.30
2023-05-24T15:47:58.796Z,8.12
2023-05-24T15:50:43.802Z,8.20
2023-05-24T15:53:11.927Z,8.37
2023-05-24T15:55:38.354Z,7.64
2023-05-24T15:58:04.817Z,7.55
2023-05-24T16:00:31.504Z,7.59
2023-05-24T16:02:58.065Z,7.83
2023-05-24T16:05:24.573Z,7.80
2023-05-24T16:07:51.088Z,7.65
2023-05-24T16:10:17.504Z,7.13
2023-05-24T16:12:44.007Z,7.86
2023-05-24T16:15:10.504Z,7.85
2023-05-24T16:17:37.074Z,7.42
2023-05-24T16:20:03.584Z,8.03
2023-05-24T16:22:30.152Z,7.65
2023-05-24T16:24:56.712Z,7.65
2023-05-24T16:27:23.372Z,8.20
2023-05-24T16:29:50.113Z,8.09
2023-05-24T16:32:16.591Z,8.00
2023-05-24T16:34:56.101Z,7.86
2023-05-24T16:37:23.412Z,8.51
2023-05-24T16:39:49.841Z,8.70
2023-05-24T16:42:16.339Z,8.99
2023-05-24T16:44:42.779Z,8.75
2023-05-24T16:47:09.247Z,8.66
2023-05-24T16:49:35.794Z,8.40
2023-05-24T16:52:02.373Z,8.66
2023-05-24T16:54:28.837Z,8.50
2023-05-24T16:56:55.317Z,8.59
2023-05-24T16:59:21.765Z,8.30
2023-05-24T17:01:48.262Z,8.70
2023-05-24T17:04:14.790Z,9.26
2023-05-24T17:06:41.338Z,8.74
2023-05-24T17:09:07.915Z,8.85
2023-05-24T17:11:34.334Z,8.59
2023-05-24T17:14:00.971Z,8.98
2023-05-24T17:16:27.463Z,9.25
2023-05-24T17:18:54.013Z,9.21
2023-05-24T17:21:20.665Z,9.19
2023-05-24T17:23:47.214Z,9.48
2023-05-24T17:26:13.664Z,9.29
2023-05-24T17:28:40.270Z,8.98
2023-05-24T17:31:06.718Z,9.39
2023-05-24T17:33:33.182Z,9.58
2023-05-24T17:35:59.685Z,9.61
2023-05-24T17:38:26.127Z,10.01
2023-05-24T17:40:52.549Z,9.83
2023-05-24T17:43:19.001Z,9.22
2023-05-24T17:45:45.752Z,9.49
2023-05-24T17:48:12.496Z,9.50
2023-05-24T17:50:39.083Z,9.63
2023-05-24T17:53:10.956Z,9.85
2023-05-24T17:55:45.697Z,9.33
2023-05-24T17:58:12.143Z,9.56
2023-05-24T18:00:38.607Z,9.87
2023-05-24T18:03:05.133Z,9.66
2023-05-24T18:05:31.704Z,9.76
2023-05-24T18:07:58.147Z,9.57
2023-05-24T18:10:24.727Z,9.75
2023-05-24T18:12:51.223Z,9.86
2023-05-24T18:15:17.659Z,9.39
2023-05-24T18:17:44.118Z,8.96
2023-05-24T18:20:10.712Z,8.71
2023-05-24T18:22:37.141Z,8.64
2023-05-24T18:25:03.610Z,8.54
2023-05-24T18:27:30.202Z,8.52
2023-05-24T18:29:56.881Z,8.36
2023-05-24T18:32:23.463Z,8.48
2023-05-24T18:34:49.950Z,8.21
2023-05-24T18:37:16.426Z,7.74
2023-05-24T18:39:43.016Z,7.81
2023-05-24T18:42:09.474Z,7.94
2023-05-24T18:44:35.994Z,7.75
2023-05-24T18:47:02.510Z,7.67
2023-05-24T18:49:29.010Z,7.51
2023-05-24T18:51:55.472Z,6.93
2023-05-24T18:54:21.927Z,6.90
2023-05-24T18:56:48.433Z,6.90
2023-05-24T18:59:14.933Z,7.09
2023-05-24T19:01:41.433Z,6.97
2023-05-24T19:04:07.989Z,6.84
2023-05-24T19:06:34.514Z,6.76
2023-05-24T19:09:01.062Z,6.78
2023-05-24T19:11:27.559Z,7.04
2023-05-24T19:13:54.018Z,6.87
2023-05-24T19:16:20.569Z,6.81
2023-05-24T19:18:47.077Z,7.07
2023-05-24T19:21:13.599Z,7.56
2023-05-24T19:23:40.111Z,7.43
2023-05-24T19:26:06.553Z,7.13
2023-05-24T19:28:33.080Z,7.30
2023-05-24T19:30:59.507Z,7.95
2023-05-24T19:33:26.049Z,8.14
2023-05-24T19:35:52.788Z,7.75
2023-05-24T19:38:19.211Z,8.25
2023-05-24T19:40:45.653Z,8.05
2023-05-24T19:43:12.149Z,8.54
2023-05-24T19:45:38.613Z,8.98
2023-05-24T19:48:05.190Z,9.12
2023-05-24T19:50:31.829Z,9.29
2023-05-24T19:52:58.286Z,9.28
2023-05-24T19:55:24.752Z,9.62
2023-05-24T19:57:51.255Z,9.34
2023-05-24T20:00:17.792Z,9.53
2023-05-24T20:02:44.357Z,9.49
2023-05-24T20:05:10.940Z,9.41
2023-05-24T20:07:37.424Z,9.65
2023-05-24T20:10:03.978Z,9.50
2023-05-24T20:12:30.631Z,9.31
2023-05-24T20:14:57.162Z,9.50
2023-05-24T20:17:23.836Z,9.98
2023-05-24T20:19:50.467Z,9.61
2023-05-24T20:22:17.060Z,9.69
2023-05-24T20:24:43.506Z,9.74
2023-05-24T20:27:10.154Z,9.76
2023-05-24T20:29:36.745Z,9.85
2023-05-24T20:32:03.326Z,9.64
2023-05-24T20:34:29.984Z,9.60
2023-05-24T20:36:56.545Z,9.73
2023-05-24T20:39:22.987Z,9.94
2023-05-24T20:41:49.496Z,9.99
2023-05-24T20:44:15.980Z,9.96
2023-05-24T20:46:42.563Z,9.64
2023-05-24T20:49:09.046Z,9.69
2023-05-24T20:51:35.576Z,9.44
2023-05-24T20:54:02.099Z,10.15
2023-05-24T20:56:28.562Z,9.44
2023-05-24T20:58:55.062Z,9.23
2023-05-24T21:01:21.644Z,9.45
2023-05-24T21:03:48.257Z,9.45
2023-05-24T21:06:14.687Z,9.28
2023-05-24T21:08:41.132Z,9.17
2023-05-24T21:11:07.588Z,9.13
2023-05-24T21:13:34.083Z,9.21
2023-05-24T21:16:00.581Z,9.70
2023-05-24T21:18:27.035Z,9.43
2023-05-24T21:20:53.544Z,9.17
2023-05-24T21:23:19.997Z,9.76
2023-05-24T21:25:46.542Z,10.09
2023-05-24T21:28:12.998Z,9.96
2023-05-24T21:30:39.472Z,10.09
2023-05-24T21:33:06.025Z,9.76
2023-05-24T21:35:32.518Z,10.33
2023-05-24T21:37:59.067Z,10.12
2023-05-24T21:40:25.482Z,10.23
2023-05-24T21:42:52.003Z,10.12
2023-05-24T21:45:18.459Z,9.64
2023-05-24T21:47:45.118Z,9.80
2023-05-24T21:50:11.611Z,9.48
2023-05-24T21:52:38.063Z,9.66
2023-05-24T21:55:04.529Z,8.86
2023-05-24T21:57:31.209Z,9.01
2023-05-24T21:59:57.757Z,9.39
2023-05-24T22:02:24.168Z,9.46
2023-05-24T22:04:50.689Z,9.41
2023-05-24T22:07:17.137Z,8.78
2023-05-24T22:09:43.574Z,8.87
2023-05-24T22:12:10.104Z,9.10
2023-05-24T22:14:36.588Z,9.04
2023-05-24T22:17:03.037Z,9.21
2023-05-24T22:19:39.613Z,9.74
2023-05-24T22:22:06.989Z,9.32
2023-05-24T22:24:33.549Z,9.53
2023-05-24T22:27:00.019Z,9.39
2023-05-24T22:29:26.468Z,9.64
2023-05-24T22:31:52.973Z,9.43
2023-05-24T22:34:19.501Z,9.52
2023-05-24T22:36:46.037Z,9.32
2023-05-24T22:39:12.528Z,9.52
2023-05-24T22:41:39.078Z,9.20
2023-05-24T22:44:05.516Z,9.58
2023-05-24T22:46:32.071Z,9.66
2023-05-24T22:48:58.597Z,9.84
2023-05-24T22:51:25.034Z,9.87
2023-05-24T22:53:51.500Z,10.11
2023-05-24T22:56:18.005Z,10.43
2023-05-24T22:58:44.489Z,10.06
2023-05-24T23:01:10.940Z,11.18
2023-05-24T23:03:37.369Z,11.52
2023-05-24T23:06:03.914Z,11.20
2023-05-24T23:08:30.374Z,11.31
2023-05-24T23:10:56.815Z,11.25
2023-05-24T23:13:23.361Z,11.57
2023-05-24T23:15:49.823Z,11.07
2023-05-24T23:18:16.436Z,11.43
2023-05-24T23:20:42.973Z,10.99
2023-05-24T23:23:09.444Z,11.78
2023-05-24T23:25:35.896Z,11.56
2023-05-24T23:28:02.331Z,11.42
2023-05-24T23:30:28.782Z,11.00
2023-05-24T23:32:55.294Z,11.21
2023-05-24T23:35:21.715Z,11.29
2023-05-24T23:37:48.163Z,11.13
2023-05-24T23:40:14.833Z,11.96
2023-05-24T23:42:41.262Z,11.19
2023-05-24T23:45:07.703Z,11.05
2023-05-24T23:47:34.231Z,11.66
2023-05-24T23:50:00.743Z,11.48
2023-05-24T23:52:27.163Z,12.17
2023-05-24T23:54:53.593Z,11.98
2023-05-24T23:57:20.066Z,11.97
2023-05-24T23:59:46.536Z,11.88
